createdAt,value
2018-05-24T00:00:44.405Z,16.80
2018-05-24T00:03:11.868Z,16.90
2018-05-24T00:05:39.334Z,16.80
2018-05-24T00:08:06.797Z,16.80
2018-05-24T00:10:34.345Z,16.80
2018-05-24T00:13:01.804Z,16.80
2018-05-24T00:15:29.376Z,16.80
2018-05-24T00:17:56.820Z,16.80
2018-05-24T00:20:24.298Z,16.90
2018-05-24T00:22:51.792Z,16.90
2018-05-24T00:25:19.252Z,16.80
2018-05-24T00:27:46.791Z,16.80
2018-05-24T00:30:14.244Z,16.80
2018-05-24T00:32:41.821Z,16.80
2018-05-24T00:35:09.270Z,16.70
2018-05-24T00:37:36.738Z,16.70
2018-05-24T00:40:04.227Z,16.70
2018-05-24T00:42:31.675Z,16.70
2018-05-24T00:44:59.120Z,16.70
2018-05-24T00:47:26.583Z,16.70
2018-05-24T00:49:54.048Z,16.70
2018-05-24T00:52:21.513Z,16.60
2018-05-24T00:54:48.976Z,16.70
2018-05-24T00:57:16.537Z,16.60
2018-05-24T00:59:43.989Z,16.60
2018-05-24T01:02:11.566Z,16.60
2018-05-24T01:04:39.017Z,16.60
2018-05-24T01:07:06.494Z,16.60
2018-05-24T01:09:33.952Z,16.50
2018-05-24T01:12:01.416Z,16.50
2018-05-24T01:14:28.885Z,16.50
2018-05-24T01:16:56.361Z,16.60
2018-05-24T01:19:23.818Z,16.60
2018-05-24T01:21:51.289Z,16.60
2018-05-24T01:24:18.748Z,16.60
2018-05-24T01:26:46.209Z,16.50
2018-05-24T01:29:13.759Z,16.50
2018-05-24T01:31:41.220Z,16.50
2018-05-24T01:34:08.669Z,16.50
2018-05-24T01:37:01.927Z,16.50
2018-05-24T01:39:29.493Z,16.50
2018-05-24T01:41:56.954Z,16.50
2018-05-24T01:44:24.432Z,16.50
2018-05-24T01:46:51.904Z,16.50
2018-05-24T01:49:19.452Z,16.50
2018-05-24T01:51:46.905Z,16.50
2018-05-24T01:54:14.378Z,16.50
2018-05-24T01:56:41.853Z,16.50
2018-05-24T01:59:09.400Z,16.50
2018-05-24T02:01:36.860Z,16.40
2018-05-24T02:04:04.342Z,16.40
2018-05-24T02:06:31.793Z,16.40
2018-05-24T02:08:59.241Z,16.40
2018-05-24T02:11:26.698Z,16.30
2018-05-24T02:13:54.177Z,16.30
2018-05-24T02:16:21.621Z,16.20
2018-05-24T02:18:49.101Z,16.20
2018-05-24T02:21:16.550Z,16.20
2018-05-24T02:23:44.035Z,16.20
2018-05-24T02:26:11.462Z,16.10
2018-05-24T02:28:38.925Z,16.10
2018-05-24T02:31:06.399Z,16.10
2018-05-24T02:33:33.858Z,16.00
2018-05-24T02:36:01.510Z,16.00
2018-05-24T02:38:28.813Z,16.00
2018-05-24T02:40:56.365Z,16.00
2018-05-24T02:43:23.836Z,16.00
2018-05-24T02:45:51.289Z,15.90
2018-05-24T02:48:18.859Z,15.90
2018-05-24T02:50:46.327Z,15.80
2018-05-24T02:53:13.793Z,15.80
2018-05-24T02:55:41.349Z,15.80
2018-05-24T02:58:08.910Z,15.80
2018-05-24T03:00:36.354Z,15.70
2018-05-24T03:03:03.808Z,15.70
2018-05-24T03:05:31.299Z,15.70
2018-05-24T03:07:58.760Z,15.70
2018-05-24T03:10:26.226Z,15.70
2018-05-24T03:12:53.686Z,15.60
2018-05-24T03:15:21.153Z,15.60
2018-05-24T03:17:48.715Z,15.60
2018-05-24T03:20:16.181Z,15.60
2018-05-24T03:22:43.666Z,15.70
2018-05-24T03:25:11.129Z,15.60
2018-05-24T03:27:38.581Z,15.60
2018-05-24T03:30:06.053Z,15.40
2018-05-24T03:32:33.537Z,15.40
2018-05-24T03:35:01.783Z,15.40
2018-05-24T03:37:29.244Z,15.30
2018-05-24T03:39:56.702Z,15.30
2018-05-24T03:42:24.161Z,15.30
2018-05-24T03:44:51.632Z,15.30
2018-05-24T03:47:19.182Z,15.30
2018-05-24T03:49:46.661Z,15.30
2018-05-24T03:52:14.123Z,15.30
2018-05-24T03:54:41.669Z,15.30
2018-05-24T03:57:09.136Z,15.30
2018-05-24T03:59:59.125Z,15.30
2018-05-24T04:02:38.396Z,15.30
2018-05-24T04:05:06.727Z,15.30
2018-05-24T04:07:34.294Z,15.20
2018-05-24T04:10:01.857Z,15.30
2018-05-24T04:12:29.300Z,15.20
2018-05-24T04:14:56.769Z,15.30
2018-05-24T04:17:24.249Z,15.30
2018-05-24T04:19:51.695Z,15.30
2018-05-24T04:22:19.175Z,15.30
2018-05-24T04:24:46.733Z,15.20
2018-05-24T04:27:14.301Z,15.20
2018-05-24T04:29:41.740Z,15.30
2018-05-24T04:32:09.206Z,15.20
2018-05-24T04:34:36.685Z,15.20
2018-05-24T04:37:04.152Z,15.10
2018-05-24T04:39:31.621Z,15.10
2018-05-24T04:41:59.168Z,15.10
2018-05-24T04:44:26.649Z,15.10
2018-05-24T04:46:57.101Z,15.20
2018-05-24T04:49:24.569Z,15.30
2018-05-24T04:51:52.822Z,15.30
2018-05-24T04:54:20.297Z,15.30
2018-05-24T04:56:47.772Z,15.30
2018-05-24T04:59:15.275Z,15.30
2018-05-24T05:01:42.854Z,15.30
2018-05-24T05:04:10.243Z,15.40
2018-05-24T05:06:37.720Z,15.40
2018-05-24T05:09:06.066Z,15.40
2018-05-24T05:11:33.521Z,15.50
2018-05-24T05:14:00.992Z,15.50
2018-05-24T05:16:28.448Z,15.50
2018-05-24T05:18:55.934Z,15.60
2018-05-24T05:21:23.389Z,15.60
2018-05-24T05:23:50.945Z,15.60
2018-05-24T05:26:18.413Z,15.60
2018-05-24T05:28:45.862Z,15.60
2018-05-24T05:31:13.326Z,15.70
2018-05-24T05:33:40.816Z,15.70
2018-05-24T05:36:08.277Z,15.80
2018-05-24T05:38:35.753Z,15.80
2018-05-24T05:41:03.218Z,15.90
2018-05-24T05:43:30.762Z,16.00
2018-05-24T05:45:58.211Z,16.10
2018-05-24T05:48:25.687Z,16.10
2018-05-24T05:50:53.129Z,16.30
2018-05-24T05:53:20.609Z,16.30
2018-05-24T05:55:48.069Z,16.30
2018-05-24T05:58:15.539Z,16.30
2018-05-24T06:00:42.989Z,16.50
2018-05-24T06:03:10.469Z,16.60
2018-05-24T06:05:38.681Z,16.70
2018-05-24T06:08:06.913Z,16.70
2018-05-24T06:10:34.369Z,16.70
2018-05-24T06:13:01.937Z,16.80
2018-05-24T06:15:29.430Z,16.80
2018-05-24T06:17:56.969Z,16.90
2018-05-24T06:20:24.424Z,16.90
2018-05-24T06:22:51.905Z,16.90
2018-05-24T06:25:19.376Z,16.90
2018-05-24T06:27:46.847Z,16.90
2018-05-24T06:30:14.381Z,16.90
2018-05-24T06:32:41.849Z,16.90
2018-05-24T06:35:09.328Z,16.90
2018-05-24T06:37:36.764Z,17.00
2018-05-24T06:40:04.246Z,17.00
2018-05-24T06:42:31.689Z,17.00
2018-05-24T06:44:59.150Z,17.00
2018-05-24T06:47:26.613Z,17.00
2018-05-24T06:49:54.185Z,17.00
2018-05-24T06:52:21.649Z,17.00
2018-05-24T06:54:49.473Z,16.90
2018-05-24T06:57:17.684Z,16.90
2018-05-24T06:59:45.161Z,16.90
2018-05-24T07:02:12.630Z,16.90
2018-05-24T07:04:40.081Z,16.90
2018-05-24T07:07:07.549Z,17.00
2018-05-24T07:09:35.014Z,17.00
2018-05-24T07:12:02.479Z,17.10
2018-05-24T07:14:29.917Z,17.20
2018-05-24T07:16:57.392Z,17.30
2018-05-24T07:19:24.957Z,17.40
2018-05-24T07:21:52.432Z,17.40
2018-05-24T07:24:19.913Z,17.50
2018-05-24T07:26:47.393Z,17.50
2018-05-24T07:29:15.617Z,17.80
2018-05-24T07:31:43.085Z,17.70
2018-05-24T07:34:10.537Z,17.80
2018-05-24T07:36:38.017Z,17.90
2018-05-24T07:39:05.489Z,17.90
2018-05-24T07:41:33.044Z,17.90
2018-05-24T07:44:00.535Z,17.90
2018-05-24T07:46:28.010Z,18.00
2018-05-24T07:48:56.223Z,18.10
2018-05-24T07:51:23.695Z,18.10
2018-05-24T07:53:51.141Z,18.10
2018-05-24T07:56:18.610Z,18.10
2018-05-24T07:58:46.104Z,18.30
2018-05-24T08:01:13.577Z,18.40
2018-05-24T08:03:41.027Z,18.60
2018-05-24T08:06:08.594Z,18.60
2018-05-24T08:08:36.099Z,18.70
2018-05-24T08:11:03.525Z,18.70
2018-05-24T08:13:30.972Z,18.70
2018-05-24T08:15:58.440Z,18.70
2018-05-24T08:18:25.912Z,18.70
2018-05-24T08:20:53.381Z,18.80
2018-05-24T08:23:20.855Z,18.80
2018-05-24T08:25:48.323Z,18.90
2018-05-24T08:28:15.779Z,18.90
2018-05-24T08:30:43.246Z,18.90
2018-05-24T08:33:10.705Z,18.90
2018-05-24T08:35:38.171Z,19.10
2018-05-24T08:38:05.702Z,19.10
2018-05-24T08:40:33.256Z,19.20
2018-05-24T08:43:00.641Z,19.20
2018-05-24T08:45:28.097Z,19.30
2018-05-24T08:47:55.653Z,19.40
2018-05-24T08:50:23.105Z,19.60
2018-05-24T08:52:50.568Z,19.70
2018-05-24T08:55:18.023Z,20.00
2018-05-24T08:57:45.513Z,20.10
2018-05-24T09:00:13.064Z,20.20
2018-05-24T09:02:40.641Z,20.30
2018-05-24T09:05:08.197Z,20.30
2018-05-24T09:07:35.660Z,20.40
2018-05-24T09:10:03.128Z,20.40
2018-05-24T09:12:30.685Z,20.60
2018-05-24T09:14:58.146Z,20.70
2018-05-24T09:17:26.027Z,21.00
2018-05-24T09:19:53.585Z,21.10
2018-05-24T09:22:21.039Z,21.30
2018-05-24T09:24:48.524Z,21.30
2018-05-24T09:27:15.968Z,21.40
2018-05-24T09:29:43.436Z,21.50
2018-05-24T09:32:10.891Z,21.70
2018-05-24T09:34:38.354Z,21.90
2018-05-24T09:37:05.829Z,22.00
2018-05-24T09:39:33.388Z,22.00
2018-05-24T09:42:00.842Z,22.10
2018-05-24T09:44:28.396Z,22.30
2018-05-24T09:46:55.849Z,22.40
2018-05-24T09:49:23.345Z,22.50
2018-05-24T09:51:50.797Z,22.50
2018-05-24T09:54:18.385Z,22.70
2018-05-24T09:56:45.829Z,23.00
2018-05-24T09:59:13.401Z,23.00
2018-05-24T10:01:41.474Z,23.10
2018-05-24T10:04:08.955Z,23.20
2018-05-24T10:06:36.506Z,23.20
2018-05-24T10:09:03.970Z,23.30
2018-05-24T10:11:31.533Z,23.10
2018-05-24T10:13:58.994Z,22.90
2018-05-24T10:16:26.505Z,22.70
2018-05-24T10:18:53.922Z,22.60
2018-05-24T10:21:21.372Z,22.20
2018-05-24T10:23:48.828Z,22.10
2018-05-24T10:26:16.300Z,22.00
2018-05-24T10:28:43.764Z,22.00
2018-05-24T10:31:11.241Z,21.90
2018-05-24T10:33:38.689Z,21.50
2018-05-24T10:36:06.254Z,21.40
2018-05-24T10:38:33.730Z,21.40
2018-05-24T10:41:01.177Z,21.30
2018-05-24T10:43:28.641Z,21.10
2018-05-24T10:45:56.132Z,21.20
2018-05-24T10:48:23.591Z,21.10
2018-05-24T10:50:51.145Z,21.10
2018-05-24T10:53:18.593Z,21.10
2018-05-24T10:55:46.053Z,21.20
2018-05-24T10:58:13.509Z,21.10
2018-05-24T11:00:40.991Z,21.10
2018-05-24T11:03:08.562Z,21.10
2018-05-24T11:05:35.885Z,21.10
2018-05-24T11:08:03.348Z,21.20
2018-05-24T11:10:30.833Z,21.20
2018-05-24T11:12:58.272Z,21.20
2018-05-24T11:15:25.757Z,21.10
2018-05-24T11:17:53.228Z,21.20
2018-05-24T11:20:20.700Z,21.20
2018-05-24T11:22:48.147Z,21.40
2018-05-24T11:25:15.745Z,21.50
2018-05-24T11:27:43.173Z,21.50
2018-05-24T11:30:10.633Z,21.80
2018-05-24T11:32:38.205Z,22.00
2018-05-24T11:35:05.764Z,22.20
2018-05-24T11:37:33.338Z,22.40
2018-05-24T11:40:00.811Z,22.40
2018-05-24T11:42:28.250Z,22.40
2018-05-24T11:44:55.721Z,22.50
2018-05-24T11:47:23.173Z,22.60
2018-05-24T11:49:50.650Z,22.70
2018-05-24T11:52:18.107Z,22.80
2018-05-24T11:54:45.558Z,22.90
2018-05-24T11:57:13.013Z,23.30
2018-05-24T11:59:40.548Z,23.60
2018-05-24T12:02:08.551Z,23.80
2018-05-24T12:04:36.046Z,23.60
2018-05-24T12:07:03.621Z,23.50
2018-05-24T12:09:31.289Z,23.50
2018-05-24T12:12:00.429Z,23.40
2018-05-24T12:14:27.881Z,23.40
2018-05-24T12:16:55.393Z,23.40
2018-05-24T12:19:22.868Z,23.20
2018-05-24T12:21:50.420Z,23.00
2018-05-24T12:24:17.866Z,23.10
2018-05-24T12:26:45.700Z,23.10
2018-05-24T12:29:14.010Z,23.30
2018-05-24T12:31:41.389Z,23.30
2018-05-24T12:34:08.860Z,23.50
2018-05-24T12:36:36.318Z,23.50
2018-05-24T12:39:03.786Z,23.60
2018-05-24T12:41:31.275Z,23.80
2018-05-24T12:43:58.678Z,23.80
2018-05-24T12:46:26.173Z,23.90
2018-05-24T12:48:53.665Z,24.00
2018-05-24T12:51:21.197Z,24.10
2018-05-24T12:53:48.631Z,24.10
2018-05-24T12:56:16.125Z,24.10
2018-05-24T12:58:44.403Z,24.20
2018-05-24T13:01:11.875Z,24.20
2018-05-24T13:03:39.430Z,24.30
2018-05-24T13:06:06.868Z,24.20
2018-05-24T13:08:34.323Z,24.30
2018-05-24T13:11:01.781Z,24.30
2018-05-24T13:13:29.859Z,24.20
2018-05-24T13:15:57.376Z,24.40
2018-05-24T13:18:24.825Z,24.40
2018-05-24T13:20:52.280Z,24.40
2018-05-24T13:23:19.749Z,24.40
2018-05-24T13:25:47.315Z,24.40
2018-05-24T13:28:14.782Z,24.30
2018-05-24T13:30:42.213Z,24.40
2018-05-24T13:33:09.689Z,24.40
2018-05-24T13:35:37.127Z,24.30
2018-05-24T13:38:04.617Z,24.20
2018-05-24T13:40:32.174Z,24.10
2018-05-24T13:42:59.556Z,24.10
2018-05-24T13:45:27.105Z,24.00
2018-05-24T13:47:54.572Z,23.90
2018-05-24T13:50:22.129Z,23.80
2018-05-24T13:52:49.610Z,23.50
2018-05-24T13:55:17.124Z,23.40
2018-05-24T13:57:44.594Z,23.20
2018-05-24T14:00:12.095Z,23.00
2018-05-24T14:02:39.550Z,22.80
2018-05-24T14:05:07.113Z,22.60
2018-05-24T14:07:34.585Z,22.40
2018-05-24T14:10:02.054Z,22.40
2018-05-24T14:12:29.612Z,22.20
2018-05-24T14:14:57.076Z,22.10
2018-05-24T14:17:24.564Z,21.80
2018-05-24T14:19:52.008Z,21.60
2018-05-24T14:22:19.465Z,21.50
2018-05-24T14:24:46.912Z,21.50
2018-05-24T14:27:14.481Z,21.50
2018-05-24T14:29:41.926Z,21.40
2018-05-24T14:32:09.405Z,21.30
2018-05-24T14:34:36.879Z,21.20
2018-05-24T14:37:05.096Z,21.20
2018-05-24T14:39:33.429Z,21.10
2018-05-24T14:42:00.891Z,21.10
2018-05-24T14:44:28.325Z,21.10
2018-05-24T14:46:55.851Z,20.90
2018-05-24T14:49:23.381Z,20.80
2018-05-24T14:51:50.944Z,20.70
2018-05-24T14:54:18.409Z,20.70
2018-05-24T14:56:45.870Z,20.70
2018-05-24T14:59:13.369Z,20.70
2018-05-24T15:01:40.799Z,20.70
2018-05-24T15:04:08.265Z,20.70
2018-05-24T15:06:35.725Z,20.70
2018-05-24T15:09:03.202Z,20.60
2018-05-24T15:11:30.676Z,20.60
2018-05-24T15:13:58.120Z,20.60
2018-05-24T15:16:25.678Z,20.60
2018-05-24T15:18:53.136Z,20.70
2018-05-24T15:21:20.600Z,20.70
2018-05-24T15:23:48.172Z,20.60
2018-05-24T15:26:15.632Z,20.60
2018-05-24T15:28:43.101Z,20.50
2018-05-24T15:31:10.653Z,20.60
2018-05-24T15:33:38.220Z,20.60
2018-05-24T15:36:05.779Z,20.60
2018-05-24T15:38:33.223Z,20.60
2018-05-24T15:41:00.693Z,20.60
2018-05-24T15:43:28.141Z,20.60
2018-05-24T15:45:55.621Z,20.60
2018-05-24T15:48:23.073Z,20.60
2018-05-24T15:50:50.521Z,20.60
2018-05-24T15:53:17.995Z,20.60
2018-05-24T15:55:45.916Z,20.60
2018-05-24T15:58:13.373Z,20.60
2018-05-24T16:00:41.022Z,20.70
2018-05-24T16:03:08.488Z,20.70
2018-05-24T16:05:36.049Z,20.70
2018-05-24T16:08:04.294Z,20.70
2018-05-24T16:10:32.497Z,20.70
2018-05-24T16:12:59.973Z,20.70
2018-05-24T16:15:27.453Z,20.80
2018-05-24T16:17:54.892Z,20.70
2018-05-24T16:20:22.357Z,20.80
2018-05-24T16:22:49.809Z,20.80
2018-05-24T16:25:17.265Z,20.80
2018-05-24T16:27:44.770Z,20.80
2018-05-24T16:30:12.204Z,20.80
2018-05-24T16:32:39.685Z,20.70
2018-05-24T16:35:07.233Z,20.70
2018-05-24T16:37:34.701Z,20.60
2018-05-24T16:40:02.166Z,20.60
2018-05-24T16:42:29.613Z,20.60
2018-05-24T16:44:57.094Z,20.60
2018-05-24T16:47:24.551Z,20.50
2018-05-24T16:49:52.010Z,20.50
2018-05-24T16:52:19.567Z,20.40
2018-05-24T16:54:47.059Z,20.30
2018-05-24T16:57:14.530Z,20.30
2018-05-24T16:59:41.972Z,20.30
2018-05-24T17:02:09.432Z,20.20
2018-05-24T17:04:36.888Z,20.20
2018-05-24T17:07:04.349Z,20.10
2018-05-24T17:09:31.792Z,20.00
2018-05-24T17:11:59.254Z,20.00
2018-05-24T17:14:26.723Z,19.90
2018-05-24T17:16:54.178Z,19.90
2018-05-24T17:19:21.669Z,19.90
2018-05-24T17:21:49.333Z,19.80
2018-05-24T17:24:16.892Z,19.80
2018-05-24T17:26:44.365Z,19.80
2018-05-24T17:29:11.834Z,19.70
2018-05-24T17:31:39.387Z,19.70
2018-05-24T17:34:06.860Z,19.70
2018-05-24T17:36:34.326Z,19.70
2018-05-24T17:39:01.773Z,19.70
2018-05-24T17:41:30.152Z,19.60
2018-05-24T17:43:57.629Z,19.50
2018-05-24T17:46:25.076Z,19.60
2018-05-24T17:48:52.546Z,19.60
2018-05-24T17:51:20.001Z,19.60
2018-05-24T17:53:47.441Z,19.50
2018-05-24T17:56:14.889Z,19.50
2018-05-24T17:58:42.375Z,19.50
2018-05-24T18:01:09.843Z,19.50
2018-05-24T18:03:37.303Z,19.50
2018-05-24T18:06:04.793Z,19.40
2018-05-24T18:08:32.263Z,19.40
2018-05-24T18:10:59.709Z,19.40
2018-05-24T18:13:28.108Z,19.30
2018-05-24T18:15:55.654Z,19.30
2018-05-24T18:18:23.129Z,19.30
2018-05-24T18:20:50.679Z,19.30
2018-05-24T18:23:18.142Z,19.30
2018-05-24T18:25:45.595Z,19.20
2018-05-24T18:28:13.057Z,19.20
2018-05-24T18:30:40.508Z,19.10
2018-05-24T18:33:07.966Z,19.10
2018-05-24T18:35:35.535Z,19.10
2018-05-24T18:38:03.019Z,19.20
2018-05-24T18:40:30.490Z,19.20
2018-05-24T18:42:58.021Z,19.10
2018-05-24T18:45:25.393Z,19.00
2018-05-24T18:47:52.875Z,18.90
2018-05-24T18:50:20.325Z,18.90
2018-05-24T18:52:47.798Z,18.90
2018-05-24T18:55:15.256Z,18.90
2018-05-24T18:57:42.697Z,18.80
2018-05-24T19:00:10.161Z,18.90
2018-05-24T19:02:37.633Z,18.70
2018-05-24T19:05:05.104Z,18.70
2018-05-24T19:07:32.573Z,18.60
2018-05-24T19:10:00.040Z,18.70
2018-05-24T19:12:27.498Z,18.70
2018-05-24T19:14:55.058Z,18.50
2018-05-24T19:17:23.262Z,18.30
2018-05-24T19:19:50.718Z,18.30
2018-05-24T19:22:18.449Z,18.20
2018-05-24T19:24:45.899Z,18.30
2018-05-24T19:27:13.372Z,18.30
2018-05-24T19:29:40.857Z,18.30
2018-05-24T19:32:08.324Z,18.30
2018-05-24T19:34:35.774Z,18.30
2018-05-24T19:37:03.237Z,18.30
2018-05-24T19:39:30.709Z,18.20
2018-05-24T19:41:58.274Z,18.20
2018-05-24T19:44:25.832Z,18.10
2018-05-24T19:46:53.277Z,18.00
2018-05-24T19:49:20.745Z,18.00
2018-05-24T19:51:48.189Z,18.00
2018-05-24T19:54:15.645Z,18.00
2018-05-24T19:56:43.887Z,17.80
2018-05-24T19:59:11.436Z,17.80
2018-05-24T20:01:38.898Z,17.80
2018-05-24T20:04:06.359Z,17.80
2018-05-24T20:06:33.799Z,17.70
2018-05-24T20:09:01.281Z,17.70
2018-05-24T20:11:28.747Z,17.70
2018-05-24T20:13:56.207Z,17.70
2018-05-24T20:16:23.677Z,17.70
2018-05-24T20:18:51.137Z,17.60
2018-05-24T20:21:18.597Z,17.60
2018-05-24T20:23:46.070Z,17.60
2018-05-24T20:26:13.522Z,17.50
2018-05-24T20:28:41.082Z,17.50
2018-05-24T20:31:08.546Z,17.50
2018-05-24T20:33:36.351Z,17.50
2018-05-24T20:36:03.878Z,17.40
2018-05-24T20:38:31.325Z,17.40
2018-05-24T20:40:58.772Z,17.40
2018-05-24T20:43:26.244Z,17.30
2018-05-24T20:45:53.677Z,17.30
2018-05-24T20:48:21.885Z,17.20
2018-05-24T20:50:49.340Z,17.20
2018-05-24T20:53:16.785Z,17.20
2018-05-24T20:55:45.111Z,17.10
2018-05-24T20:58:12.566Z,17.00
2018-05-24T21:00:40.044Z,17.10
2018-05-24T21:03:07.525Z,17.00
2018-05-24T21:05:34.993Z,17.10
2018-05-24T21:08:02.462Z,17.10
2018-05-24T21:10:29.898Z,17.10
2018-05-24T21:12:57.458Z,17.00
2018-05-24T21:15:24.895Z,17.00
2018-05-24T21:17:52.355Z,17.00
2018-05-24T21:20:19.827Z,16.90
2018-05-24T21:22:47.275Z,16.80
2018-05-24T21:25:14.743Z,16.80
2018-05-24T21:27:42.178Z,16.80
2018-05-24T21:30:10.420Z,16.70
2018-05-24T21:32:37.869Z,16.70
2018-05-24T21:35:05.336Z,16.70
2018-05-24T21:37:32.810Z,16.70
2018-05-24T21:40:00.362Z,16.60
2018-05-24T21:42:27.831Z,16.70
2018-05-24T21:44:55.386Z,16.60
2018-05-24T21:47:22.862Z,16.60
2018-05-24T21:49:50.297Z,16.60
2018-05-24T21:52:17.769Z,16.60
2018-05-24T21:54:45.232Z,16.50
2018-05-24T21:57:12.681Z,16.50
2018-05-24T21:59:40.125Z,16.50
2018-05-24T22:02:07.630Z,16.50
2018-05-24T22:04:35.053Z,16.40
2018-05-24T22:07:02.503Z,16.40
2018-05-24T22:09:30.713Z,16.30
2018-05-24T22:11:58.181Z,16.20
2018-05-24T22:14:25.673Z,16.30
2018-05-24T22:16:53.122Z,16.30
2018-05-24T22:19:20.556Z,16.30
2018-05-24T22:21:48.019Z,16.30
2018-05-24T22:24:15.461Z,16.20
2018-05-24T22:26:42.929Z,16.10
2018-05-24T22:29:10.385Z,16.10
2018-05-24T22:31:37.901Z,16.10
2018-05-24T22:34:05.362Z,16.10
2018-05-24T22:36:32.818Z,16.10
2018-05-24T22:39:00.383Z,16.10
2018-05-24T22:41:27.826Z,16.00
2018-05-24T22:43:55.296Z,16.00
2018-05-24T22:46:22.757Z,16.00
2018-05-24T22:48:50.212Z,15.90
2018-05-24T22:51:17.676Z,15.90
2018-05-24T22:53:45.133Z,15.90
2018-05-24T22:56:12.591Z,15.90
2018-05-24T22:58:40.049Z,15.80
2018-05-24T23:01:07.504Z,15.80
2018-05-24T23:03:35.245Z,15.80
2018-05-24T23:06:02.784Z,15.80
2018-05-24T23:08:30.341Z,15.80
2018-05-24T23:10:57.905Z,15.80
2018-05-24T23:13:25.374Z,15.80
2018-05-24T23:15:52.823Z,15.90
2018-05-24T23:18:20.263Z,15.90
2018-05-24T23:20:47.738Z,15.90
2018-05-24T23:23:15.187Z,15.90
2018-05-24T23:25:42.626Z,15.90
2018-05-24T23:28:10.089Z,15.80
2018-05-24T23:30:38.321Z,15.70
2018-05-24T23:33:05.793Z,15.70
2018-05-24T23:35:33.248Z,15.70
2018-05-24T23:38:00.697Z,15.70
2018-05-24T23:40:28.159Z,15.60
2018-05-24T23:42:55.611Z,15.60
2018-05-24T23:45:23.069Z,15.60
2018-05-24T23:47:50.538Z,15.50
2018-05-24T23:50:28.912Z,15.50
2018-05-24T23:52:57.142Z,15.50
2018-05-24T23:55:24.609Z,15.50
2018-05-24T23:57:52.051Z,15.50
